Terminal Aerodrome Forecast
Issued by NWS Duluth, MN

Home | Current Version | Previous Version | Text Only | Print | Product List | Glossary On
Versions: 1 2 3 4 5 6 7 8 9 10 11 12 13 14 15 16 17 18 19 20 21 22 23 24 25
000
FTUS43 KDLH 261131
TAFDLH
TAF
KDLH 261131Z 2612/2712 24007KT P6SM VCSH BKN080
      TEMPO 2612/2614 6SM -SHRA
     FM261500 25010KT P6SM VCSH SCT040 BKN070
     FM261900 29010G16KT P6SM SCT050 BKN080
     FM270000 33006KT P6SM SCT030 BKN060
      TEMPO 2700/2704 5SM -TSRA BR BKN035CB
     FM270500 36004KT 6SM BR VCSH BKN050 PROB30 2705/2708 5SM TSRA
      BR BKN035CB=

USA.gov is the U.S. government's official web portal to all federal, state and local government web resources and services.